Time;durP1;ratioP1;P1;durP2;ratioP2;P2;SDS_P1;SDS_P2;PMS_P1;PMS_P2;Temp;Humidity;BMP_temperature;BMP_pressure;BME280_temperature;BME280_humidity;BME280_pressure;Samples;Min_cycle;Max_cycle;Signal;HPM_P1;HPM_P2
2023/09/14 00:01:00;;;;;;;4.75;2.33;;;;;;;18.70;80.52;93071.00;2071170;69;20167;-78
2023/09/14 00:03:26;;;;;;;4.22;2.75;;;;;;;18.71;81.13;93075.31;2071302;69;20530;-78
2023/09/14 00:05:52;;;;;;;5.80;2.67;;;;;;;18.69;81.25;93065.94;2071185;69;20242;-79
2023/09/14 00:08:21;;;;;;;5.68;2.63;;;;;;;18.59;82.06;93066.28;2070895;69;20226;-78
2023/09/14 00:10:53;;;;;;;4.90;2.30;;;;;;;18.48;81.33;93073.72;2067850;69;20148;-78
2023/09/14 00:13:20;;;;;;;5.40;2.20;;;;;;;18.59;80.86;93076.94;2071366;69;20179;-78
2023/09/14 00:15:47;;;;;;;4.90;2.38;;;;;;;18.43;81.53;93077.09;2071437;69;20151;-78
2023/09/14 00:18:14;;;;;;;5.72;2.17;;;;;;;18.55;81.41;93074.69;2071397;69;20144;-78
2023/09/14 00:20:41;;;;;;;4.78;2.42;;;;;;;18.61;81.13;93074.91;2068029;69;20575;-78
2023/09/14 00:23:08;;;;;;;8.88;2.50;;;;;;;18.58;81.82;93072.66;2071566;69;20152;-78
2023/09/14 00:25:34;;;;;;;6.75;2.72;;;;;;;18.61;81.90;93077.03;2071539;69;20198;-78
2023/09/14 00:28:01;;;;;;;6.53;2.65;;;;;;;18.67;81.30;93071.56;2071504;69;20203;-79
2023/09/14 00:30:28;;;;;;;5.85;2.53;;;;;;;18.63;81.57;93074.97;2065504;69;20701;-78
2023/09/14 00:32:54;;;;;;;4.93;2.50;;;;;;;18.70;80.21;93068.16;2071845;69;20147;-79
2023/09/14 00:35:20;;;;;;;6.13;2.63;;;;;;;18.71;79.63;93071.75;2071956;69;20155;-77
2023/09/14 00:37:48;;;;;;;5.75;2.35;;;;;;;18.31;82.29;93077.34;2071902;69;20176;-78
2023/09/14 00:40:15;;;;;;;4.55;2.00;;;;;;;18.55;81.19;93077.53;2065790;69;20227;-77
2023/09/14 00:42:44;;;;;;;6.22;2.40;;;;;;;18.53;81.28;93066.78;2071621;69;20146;-79
2023/09/14 00:45:15;;;;;;;5.78;2.50;;;;;;;18.67;79.74;93074.41;2071870;69;20221;-77
2023/09/14 00:47:47;;;;;;;3.45;2.15;;;;;;;18.59;81.23;93062.69;2068472;69;20149;-77
2023/09/14 00:50:19;;;;;;;5.25;2.45;;;;;;;18.50;81.85;93070.94;2068463;69;20522;-77
2023/09/14 00:52:51;;;;;;;5.55;2.50;;;;;;;18.56;81.08;93083.97;2071903;69;20148;-77
2023/09/14 00:55:18;;;;;;;5.15;2.13;;;;;;;18.51;81.74;93080.25;2071794;69;20175;-77
2023/09/14 00:57:46;;;;;;;5.75;2.20;;;;;;;18.51;81.32;93080.97;2068337;69;20183;-77
2023/09/14 01:00:15;;;;;;;5.43;2.30;;;;;;;18.48;81.17;93085.13;2068418;69;20584;-77
2023/09/14 01:02:40;;;;;;;6.03;2.38;;;;;;;18.53;80.01;93081.03;2071561;69;20545;-77
2023/09/14 01:05:07;;;;;;;3.35;2.25;;;;;;;18.38;81.64;93076.22;2068407;69;20124;-78
2023/09/14 01:07:33;;;;;;;2.65;2.00;;;;;;;18.27;81.73;93077.91;2071671;69;20175;-78
2023/09/14 01:09:59;;;;;;;6.70;2.33;;;;;;;18.23;82.85;93072.06;2071878;69;20133;-77
2023/09/14 01:12:27;;;;;;;4.47;2.13;;;;;;;18.12;83.26;93073.06;2065540;69;20148;-77
2023/09/14 01:14:55;;;;;;;2.95;1.90;;;;;;;18.18;83.39;93072.56;2071617;69;20133;-77
2023/09/14 01:17:31;;;;;;;3.45;2.15;;;;;;;18.21;83.13;93076.97;2067843;69;20141;-77
2023/09/14 01:20:30;;;;;;;4.57;2.10;;;;;;;18.25;82.62;93077.13;2071864;69;20147;-77
2023/09/14 01:23:30;;;;;;;5.22;1.92;;;;;;;18.23;83.20;93080.59;2066068;69;20143;-78
2023/09/14 01:25:58;;;;;;;2.53;2.10;;;;;;;18.14;82.96;93073.13;2068440;69;20184;-77
2023/09/14 01:28:24;;;;;;;4.35;2.00;;;;;;;18.19;83.22;93071.94;2065682;69;20155;-77
2023/09/14 01:30:51;;;;;;;3.45;1.80;;;;;;;18.23;83.30;93077.03;2068234;69;20235;-78
2023/09/14 01:33:17;;;;;;;3.30;1.90;;;;;;;18.25;83.48;93077.84;2068107;69;20569;-75
2023/09/14 01:35:49;;;;;;;5.43;2.20;;;;;;;18.21;83.39;93079.81;2068303;69;20147;-76
2023/09/14 01:38:18;;;;;;;;;;;;;;;18.13;83.86;93073.81;2068330;69;20151;-75
2023/09/14 01:40:44;;;;;;;2.53;2.00;;;;;;;18.09;83.43;93077.22;2071633;69;20051;-76
2023/09/14 01:43:12;;;;;;;7.03;2.17;;;;;;;18.16;81.48;93070.38;2065507;69;20437;-75
2023/09/14 01:45:41;;;;;;;2.80;2.13;;;;;;;18.24;81.18;93069.97;2068362;69;20145;-76
2023/09/14 01:48:07;;;;;;;2.33;2.05;;;;;;;18.27;80.43;93071.50;2065462;69;20148;-77
2023/09/14 01:50:33;;;;;;;5.25;2.10;;;;;;;18.24;82.00;93072.81;2071683;69;20144;-78
2023/09/14 01:53:00;;;;;;;2.67;1.98;;;;;;;18.26;82.23;93073.63;2068311;69;20136;-77
2023/09/14 01:55:26;;;;;;;4.22;2.08;;;;;;;18.19;83.08;93074.78;2068315;69;20172;-77
2023/09/14 01:57:52;;;;;;;2.42;2.05;;;;;;;18.21;82.87;93066.28;2071673;69;20187;-78
2023/09/14 02:00:18;;;;;;;3.28;2.40;;;;;;;18.29;81.69;93068.75;2065451;69;20223;-77
2023/09/14 02:02:46;;;;;;;2.83;2.53;;;;;;;18.24;83.00;93067.13;2068107;69;20231;-77
2023/09/14 02:05:11;;;;;;;4.20;2.45;;;;;;;18.05;83.88;93068.50;2068359;69;20139;-78
2023/09/14 02:07:37;;;;;;;4.32;2.35;;;;;;;17.72;85.68;93070.03;2068282;69;20156;-78
2023/09/14 02:10:04;;;;;;;3.38;2.33;;;;;;;17.99;83.18;93073.97;2068356;69;20147;-78
2023/09/14 02:12:29;;;;;;;3.03;2.28;;;;;;;17.99;83.86;93065.44;2065619;69;20145;-78
2023/09/14 02:14:55;;;;;;;4.35;2.15;;;;;;;17.69;85.87;93079.91;2068314;69;20159;-77
2023/09/14 02:17:20;;;;;;;3.75;2.28;;;;;;;17.88;85.19;93072.13;2071581;69;20194;-78
2023/09/14 02:19:47;;;;;;;5.63;2.30;;;;;;;17.98;84.94;93073.25;2068504;69;20651;-78
2023/09/14 02:22:13;;;;;;;3.30;2.10;;;;;;;18.07;84.19;93079.28;2068374;69;20168;-77
2023/09/14 02:24:39;;;;;;;3.70;2.33;;;;;;;18.08;83.88;93075.75;2062794;69;20669;-77
2023/09/14 02:27:08;;;;;;;3.38;2.10;;;;;;;18.16;82.93;93075.34;2068378;69;20154;-77
2023/09/14 02:29:33;;;;;;;4.15;2.30;;;;;;;17.98;84.43;93076.09;2068383;69;20227;-77
2023/09/14 02:32:00;;;;;;;4.28;2.10;;;;;;;18.02;84.77;93067.72;2068450;69;20179;-76
2023/09/14 02:34:26;;;;;;;4.43;2.13;;;;;;;18.06;84.05;93069.25;2071706;69;20148;-77
2023/09/14 02:36:54;;;;;;;3.15;2.40;;;;;;;17.97;83.99;93074.63;2068098;69;20620;-77
2023/09/14 02:39:19;;;;;;;5.15;2.53;;;;;;;18.05;83.59;93068.50;2067986;69;20531;-78
2023/09/14 02:41:45;;;;;;;2.60;2.33;;;;;;;18.09;83.23;93082.91;2071424;69;20228;-78
2023/09/14 02:44:11;;;;;;;2.78;2.35;;;;;;;18.04;83.57;93075.59;2067856;69;20243;-77
2023/09/14 02:46:37;;;;;;;4.78;2.58;;;;;;;18.04;83.25;93079.19;2065389;69;20139;-78
2023/09/14 02:49:02;;;;;;;3.38;2.40;;;;;;;17.95;84.08;93070.97;2065018;69;20648;-77
2023/09/14 02:51:28;;;;;;;3.67;2.75;;;;;;;17.97;83.92;93071.06;2068153;69;20150;-77
2023/09/14 02:53:58;;;;;;;6.85;2.42;;;;;;;17.99;83.89;93074.72;2065424;69;20152;-77
2023/09/14 02:56:23;;;;;;;3.08;2.40;;;;;;;17.99;83.50;93071.84;2071466;69;20141;-77
2023/09/14 02:58:52;;;;;;;3.75;2.28;;;;;;;18.07;83.10;93079.28;2068267;69;20180;-77
2023/09/14 03:01:20;;;;;;;4.32;2.47;;;;;;;18.02;83.75;93070.56;2068065;69;20152;-77
2023/09/14 03:03:47;;;;;;;6.28;2.78;;;;;;;18.10;83.14;93072.25;2062644;69;20543;-78
2023/09/14 03:06:13;;;;;;;3.08;2.17;;;;;;;18.12;83.10;93070.22;2071359;69;20133;-79
2023/09/14 03:08:39;;;;;;;4.85;2.40;;;;;;;18.03;83.91;93072.03;2068284;69;20219;-79
2023/09/14 03:11:05;;;;;;;4.35;2.42;;;;;;;17.99;83.81;93068.28;2068283;69;20578;-78
2023/09/14 03:13:31;;;;;;;3.28;2.60;;;;;;;17.94;84.46;93069.50;2068276;69;20154;-79
2023/09/14 03:15:59;;;;;;;3.15;2.08;;;;;;;18.05;81.21;93082.75;2065521;69;20242;-79
2023/09/14 03:18:25;;;;;;;3.35;2.20;;;;;;;18.11;82.26;93074.47;2068110;69;20179;-79
2023/09/14 03:20:55;;;;;;;3.00;1.88;;;;;;;18.14;82.33;93078.09;2068294;69;20176;-79
2023/09/14 03:23:22;;;;;;;2.58;2.05;;;;;;;18.04;83.64;93075.59;2071631;69;20164;-79
2023/09/14 03:25:50;;;;;;;4.28;2.30;;;;;;;18.02;84.54;93075.53;2068279;69;20147;-79
2023/09/14 03:28:18;;;;;;;4.22;2.22;;;;;;;18.08;83.12;93075.75;2068214;69;20532;-79
2023/09/14 03:30:46;;;;;;;4.15;2.65;;;;;;;18.06;83.13;93078.53;2068256;69;20141;-79
2023/09/14 03:33:12;;;;;;;3.97;2.50;;;;;;;17.98;84.02;93081.78;2071477;69;20206;-79
2023/09/14 03:35:41;;;;;;;3.38;2.50;;;;;;;17.92;84.25;93075.13;2065419;69;20618;-79
2023/09/14 03:38:07;;;;;;;3.40;2.20;;;;;;;17.77;83.44;93042.50;2068178;69;20228;-79
2023/09/14 03:40:34;;;;;;;5.32;2.45;;;;;;;17.92;84.12;93078.72;2071457;69;20136;-78
2023/09/14 03:43:00;;;;;;;4.38;2.10;;;;;;;18.01;83.80;93079.78;2068074;69;20177;-79
2023/09/14 03:45:26;;;;;;;3.17;2.17;;;;;;;17.74;84.71;93080.84;2065284;69;20143;-79
2023/09/14 03:47:55;;;;;;;3.53;2.00;;;;;;;17.83;84.47;93076.94;2071435;69;20151;-79
2023/09/14 03:50:22;;;;;;;5.28;1.95;;;;;;;17.83;84.22;93082.63;2071430;69;20242;-79
2023/09/14 03:52:48;;;;;;;4.15;2.20;;;;;;;17.90;83.85;93077.88;2071544;69;20592;-79
2023/09/14 03:55:14;;;;;;;2.92;2.33;;;;;;;17.89;83.72;93085.72;2071482;69;20163;-79
2023/09/14 03:57:46;;;;;;;3.63;2.22;;;;;;;17.97;84.35;93079.59;2068020;69;20144;-79
2023/09/14 04:00:17;;;;;;;2.75;2.30;;;;;;;18.00;84.34;93081.13;2065466;69;20234;-79
2023/09/14 04:02:44;;;;;;;5.05;2.90;;;;;;;18.02;84.09;93079.09;2067916;69;20507;-79
2023/09/14 04:05:13;;;;;;;7.22;2.60;;;;;;;17.99;84.02;93073.97;2068082;69;20152;-79
2023/09/14 04:07:38;;;;;;;4.38;2.40;;;;;;;17.78;84.47;93070.34;2071733;69;20179;-79
2023/09/14 04:10:09;;;;;;;2.85;2.08;;;;;;;17.81;82.39;93073.97;2071761;69;20160;-78
2023/09/14 04:12:39;;;;;;;5.07;2.60;;;;;;;17.58;86.17;93077.28;2068713;69;20136;-78
2023/09/14 04:15:06;;;;;;;5.30;2.45;;;;;;;17.81;84.77;93085.38;2068994;69;20144;-78
2023/09/14 04:17:33;;;;;;;5.35;2.67;;;;;;;17.66;86.12;93077.63;2073584;69;20137;-79
2023/09/14 04:19:59;;;;;;;4.68;2.13;;;;;;;17.68;85.21;93081.28;2066028;69;20140;-78
2023/09/14 04:22:28;;;;;;;3.72;2.30;;;;;;;17.61;86.68;93088.13;2068720;69;20237;-78
2023/09/14 04:24:54;;;;;;;5.57;2.63;;;;;;;17.77;85.19;93088.06;2068443;69;20585;-78
2023/09/14 04:27:20;;;;;;;8.25;2.72;;;;;;;17.77;85.56;93085.94;2065680;69;20223;-79
2023/09/14 04:29:46;;;;;;;5.03;2.97;;;;;;;17.85;85.24;93082.69;2068516;69;20152;-78
2023/09/14 04:32:11;;;;;;;3.17;2.47;;;;;;;17.91;85.17;93093.59;2071846;69;20144;-78
2023/09/14 04:34:37;;;;;;;4.28;2.58;;;;;;;17.92;84.98;93092.22;2068338;69;20152;-78
2023/09/14 04:37:04;;;;;;;4.50;3.15;;;;;;;17.78;85.14;93100.94;2068529;69;20221;-78
2023/09/14 04:39:30;;;;;;;6.00;3.03;;;;;;;17.84;85.10;93097.59;2068580;69;20290;-78
2023/09/14 04:41:56;;;;;;;5.65;3.90;;;;;;;17.85;84.79;93096.19;2072055;69;20235;-78
2023/09/14 04:44:23;;;;;;;4.60;2.88;;;;;;;17.88;84.37;93095.63;2068481;69;20244;-78
2023/09/14 04:46:49;;;;;;;3.67;2.92;;;;;;;17.87;84.14;93099.88;2065636;69;20578;-78
2023/09/14 04:49:15;;;;;;;3.88;3.00;;;;;;;17.97;82.77;93100.28;2071631;69;20263;-78
2023/09/14 04:51:41;;;;;;;4.93;3.00;;;;;;;17.80;84.43;93095.31;2068527;69;20216;-78
2023/09/14 04:54:08;;;;;;;4.13;2.67;;;;;;;17.87;83.21;93097.03;2068549;69;20138;-78
2023/09/14 04:56:33;;;;;;;5.25;3.00;;;;;;;17.89;82.98;93102.78;2065803;69;20164;-78
2023/09/14 04:59:02;;;;;;;3.38;2.80;;;;;;;17.90;84.15;93100.69;2068516;69;20168;-78
2023/09/14 05:01:28;;;;;;;7.35;2.90;;;;;;;17.72;85.00;93109.19;2068556;69;20159;-78
2023/09/14 05:03:55;;;;;;;4.13;2.95;;;;;;;17.77;84.55;93103.03;2068445;69;20148;-78
2023/09/14 05:06:21;;;;;;;7.05;3.28;;;;;;;17.80;84.57;93103.13;2068481;69;20160;-79
2023/09/14 05:08:48;;;;;;;4.07;3.03;;;;;;;17.83;85.11;93102.56;2071623;69;20148;-79
2023/09/14 05:11:14;;;;;;;4.72;2.60;;;;;;;17.87;84.93;93101.97;2068463;69;20132;-81
2023/09/14 05:13:39;;;;;;;7.03;3.13;;;;;;;17.94;84.21;93101.56;2068727;69;20139;-85
2023/09/14 05:16:06;;;;;;;7.88;2.92;;;;;;;17.94;84.97;93101.56;2071807;69;20147;-80
2023/09/14 05:18:32;;;;;;;5.40;3.13;;;;;;;17.98;84.58;93106.69;2068329;69;20148;-80
2023/09/14 05:20:58;;;;;;;3.30;2.70;;;;;;;18.06;84.17;93109.16;2065758;69;20167;-81
2023/09/14 05:23:24;;;;;;;4.53;3.20;;;;;;;18.07;84.44;93107.75;2068526;69;20136;-81
2023/09/14 05:25:50;;;;;;;3.60;2.83;;;;;;;17.85;85.33;93107.59;2071761;69;20210;-80
2023/09/14 05:28:16;;;;;;;6.32;3.40;;;;;;;17.98;84.17;93106.69;2068425;69;20144;-79
2023/09/14 05:30:43;;;;;;;6.18;3.75;;;;;;;17.97;83.36;93113.78;2071759;69;20619;-81
2023/09/14 05:33:09;;;;;;;4.10;3.10;;;;;;;18.05;83.19;93111.25;2068436;69;20604;-79
2023/09/14 05:35:36;;;;;;;5.47;3.38;;;;;;;17.94;84.92;93110.13;2068384;69;20147;-81
2023/09/14 05:38:02;;;;;;;4.65;3.25;;;;;;;17.99;84.63;93108.16;2068334;69;20143;-81
2023/09/14 05:40:32;;;;;;;7.13;3.53;;;;;;;17.73;86.76;93122.03;2068429;69;20156;-79
2023/09/14 05:42:57;;;;;;;4.78;3.35;;;;;;;17.88;86.04;93123.38;2068410;69;20535;-79
2023/09/14 05:45:23;;;;;;;6.38;3.35;;;;;;;18.02;85.33;93124.69;2071832;69;20144;-79
2023/09/14 05:47:50;;;;;;;6.63;4.10;;;;;;;17.80;86.52;93118.09;2065594;69;20166;-79
2023/09/14 05:50:16;;;;;;;7.05;4.32;;;;;;;17.73;86.47;93114.28;2071751;69;20185;-80
2023/09/14 05:52:42;;;;;;;4.72;4.22;;;;;;;17.63;87.56;93118.78;2068370;69;20231;-79
2023/09/14 05:55:08;;;;;;;6.63;4.50;;;;;;;18.03;85.77;93122.56;2065665;69;20186;-78
2023/09/14 05:57:36;;;;;;;5.22;4.03;;;;;;;18.21;84.13;93128.25;2068372;69;20191;-78
2023/09/14 06:00:09;;;;;;;5.70;3.97;;;;;;;18.28;83.07;93122.16;2065680;69;20168;-80
2023/09/14 06:02:42;;;;;;;7.65;3.75;;;;;;;18.09;84.51;93117.09;2071667;69;20147;-80
2023/09/14 06:05:11;;;;;;;5.22;3.60;;;;;;;17.99;85.95;93130.94;2071743;69;20144;-80
2023/09/14 06:07:37;;;;;;;4.10;3.55;;;;;;;17.80;87.20;93128.75;2071635;69;20199;-79
2023/09/14 06:10:04;;;;;;;5.38;3.80;;;;;;;17.87;86.29;93136.91;2071693;69;20147;-79
2023/09/14 06:12:30;;;;;;;5.45;3.70;;;;;;;18.10;85.46;93123.53;2068389;69;20133;-79
2023/09/14 06:14:57;;;;;;;6.22;3.83;;;;;;;17.96;85.39;93137.94;2072026;69;20522;-79
2023/09/14 06:17:23;;;;;;;3.17;2.80;;;;;;;17.98;82.25;93141.59;2071582;69;20228;-79
2023/09/14 06:19:48;;;;;;;3.28;2.97;;;;;;;18.11;84.62;93139.25;2068235;69;20271;-79
2023/09/14 06:22:14;;;;;;;3.90;2.92;;;;;;;18.18;83.66;93149.50;2071617;69;20148;-80
2023/09/14 06:24:40;;;;;;;3.80;2.47;;;;;;;17.90;85.16;93138.44;2071462;69;20144;-81
2023/09/14 06:27:06;;;;;;;3.92;3.00;;;;;;;18.00;85.34;93146.66;2071870;69;20541;-80
2023/09/14 06:29:32;;;;;;;3.10;2.67;;;;;;;18.19;84.48;93148.09;2071593;69;20505;-83
2023/09/14 06:31:57;;;;;;;4.03;2.50;;;;;;;17.94;85.37;93140.72;2071661;69;20143;-83
2023/09/14 06:34:23;;;;;;;2.97;2.55;;;;;;;18.06;85.45;93134.78;2071583;69;20523;-83
2023/09/14 06:36:48;;;;;;;2.55;2.10;;;;;;;18.26;82.43;93142.00;2071596;69;20227;-83
2023/09/14 06:39:14;;;;;;;2.35;2.15;;;;;;;18.21;83.53;93148.19;2071853;69;20151;-81
2023/09/14 06:41:40;;;;;;;2.75;2.10;;;;;;;17.88;85.91;93144.06;2071670;69;20136;-81
2023/09/14 06:44:06;;;;;;;3.10;2.55;;;;;;;17.50;87.43;93146.75;2071723;69;20140;-80
2023/09/14 06:46:31;;;;;;;3.30;3.00;;;;;;;17.10;90.51;93145.72;2071641;69;20556;-81
2023/09/14 06:48:57;;;;;;;3.60;2.95;;;;;;;17.66;88.61;93143.09;2071569;69;20144;-81
2023/09/14 06:51:22;;;;;;;3.78;2.70;;;;;;;17.77;87.17;93150.69;2071614;69;20154;-82
2023/09/14 06:53:50;;;;;;;5.05;2.88;;;;;;;17.64;88.48;93143.75;2072007;69;20143;-85
2023/09/14 06:56:15;;;;;;;3.28;2.60;;;;;;;18.26;83.85;93153.41;2071928;69;20578;-79
2023/09/14 06:58:41;;;;;;;4.78;2.42;;;;;;;18.18;84.16;93147.38;2071680;69;20179;-82
2023/09/14 07:01:07;;;;;;;2.78;2.40;;;;;;;18.38;83.02;93149.59;2071849;69;20575;-81
2023/09/14 07:03:34;;;;;;;3.00;2.40;;;;;;;18.43;83.77;93149.09;2068457;69;20132;-81
2023/09/14 07:06:00;;;;;;;3.80;2.47;;;;;;;18.47;82.63;93145.66;2071806;69;20156;-83
2023/09/14 07:08:26;;;;;;;2.83;2.60;;;;;;;18.48;82.49;93150.69;2071647;69;20236;-81
2023/09/14 07:10:54;;;;;;;2.55;2.15;;;;;;;18.77;81.21;93155.38;2071858;69;20553;-81
2023/09/14 07:13:19;;;;;;;3.80;2.25;;;;;;;18.73;78.28;93158.09;2071782;69;20152;-81
2023/09/14 07:15:45;;;;;;;3.17;2.20;;;;;;;18.54;82.54;93153.78;2068281;69;20547;-82
2023/09/14 07:18:25;;;;;;;2.33;2.13;;;;;;;18.60;81.57;93149.69;2071486;69;20608;-80
2023/09/14 07:20:52;;;;;;;4.30;2.42;;;;;;;18.18;83.19;93149.50;2071686;69;20171;-81
2023/09/14 07:23:17;;;;;;;4.10;3.00;;;;;;;18.07;84.24;93156.19;2071636;69;20140;-81
2023/09/14 07:25:43;;;;;;;5.57;2.70;;;;;;;18.52;83.19;93152.97;2068312;69;20148;-81
2023/09/14 07:28:08;;;;;;;4.82;2.70;;;;;;;18.53;82.84;93151.59;2071636;69;20144;-81
2023/09/14 07:30:34;;;;;;;3.22;2.30;;;;;;;18.77;80.78;93157.50;2071608;69;20140;-81
2023/09/14 07:33:00;;;;;;;4.40;2.40;;;;;;;17.99;84.13;93165.84;2072008;69;20144;-81
2023/09/14 07:35:26;;;;;;;3.10;2.53;;;;;;;18.18;84.50;93158.78;2071911;69;20140;-80
2023/09/14 07:37:51;;;;;;;3.65;2.65;;;;;;;18.42;82.99;93166.84;2071820;69;20186;-79
2023/09/14 07:40:17;;;;;;;4.68;2.47;;;;;;;18.52;82.07;93162.25;2071914;69;20152;-83
2023/09/14 07:42:43;;;;;;;3.38;2.60;;;;;;;18.60;82.72;93166.78;2072276;69;20178;-81
2023/09/14 07:45:08;;;;;;;2.58;2.28;;;;;;;18.75;80.37;93178.13;2072373;69;20595;-80
2023/09/14 07:47:34;;;;;;;3.38;2.53;;;;;;;18.93;80.57;93172.38;2068912;69;20239;-79
2023/09/14 07:50:00;;;;;;;4.70;2.65;;;;;;;18.97;80.80;93178.25;2072312;69;20143;-84
2023/09/14 07:52:25;;;;;;;3.67;2.47;;;;;;;19.02;80.50;93182.72;2072602;69;20163;-80
2023/09/14 07:54:51;;;;;;;4.05;2.28;;;;;;;18.85;80.13;93180.63;2071594;69;20584;-80
2023/09/14 07:57:17;;;;;;;3.15;2.40;;;;;;;19.01;78.93;93184.09;2076545;69;20141;-82
2023/09/14 07:59:43;;;;;;;3.75;2.35;;;;;;;19.02;78.63;93185.56;2076772;69;20136;-78
2023/09/14 08:02:08;;;;;;;3.03;2.45;;;;;;;19.00;79.38;93179.78;2076924;69;20135;-79
2023/09/14 08:04:34;;;;;;;2.83;2.40;;;;;;;19.17;79.01;93183.22;2072440;69;20507;-79
2023/09/14 08:07:00;;;;;;;2.90;2.60;;;;;;;19.26;78.98;93188.56;2076590;69;20164;-79
2023/09/14 08:09:26;;;;;;;4.22;2.60;;;;;;;19.39;78.16;93186.91;2077018;69;20129;-82
2023/09/14 08:11:51;;;;;;;3.15;2.40;;;;;;;19.40;78.97;93179.78;2069409;69;20172;-79
2023/09/14 08:14:17;;;;;;;3.40;2.28;;;;;;;19.54;76.06;93188.13;2072644;69;20149;-81
2023/09/14 08:16:44;;;;;;;6.43;2.92;;;;;;;19.36;77.70;93191.06;2070387;69;20223;-85
2023/09/14 08:19:10;;;;;;;3.45;2.53;;;;;;;19.44;77.34;93194.22;2072733;69;20480;-82
2023/09/14 08:21:36;;;;;;;3.53;2.78;;;;;;;19.25;78.10;93198.53;2072907;69;20610;-81
2023/09/14 08:24:02;;;;;;;6.05;2.33;;;;;;;19.35;77.45;93195.31;2072182;69;20164;-82
2023/09/14 08:26:28;;;;;;;3.60;2.83;;;;;;;19.38;79.15;93199.72;2072163;69;20148;-79
2023/09/14 08:28:53;;;;;;;3.08;2.67;;;;;;;19.53;77.76;93198.09;2072185;69;20144;-80
2023/09/14 08:31:19;;;;;;;2.80;2.60;;;;;;;19.36;78.32;93196.78;2068748;69;20124;-79
2023/09/14 08:33:45;;;;;;;16.58;3.85;;;;;;;19.41;77.73;93200.50;2071930;69;20172;-79
2023/09/14 08:36:10;;;;;;;6.82;2.50;;;;;;;19.63;76.78;93201.31;2072034;69;20524;-79
2023/09/14 08:38:36;;;;;;;3.40;2.50;;;;;;;19.67;77.37;93201.47;2072210;69;20508;-80
2023/09/14 08:41:07;;;;;;;3.83;2.28;;;;;;;19.65;78.08;93200.66;2072064;69;20171;-79
2023/09/14 08:43:35;;;;;;;2.97;2.67;;;;;;;19.79;77.10;93201.91;2071960;69;20596;-79
2023/09/14 08:46:03;;;;;;;3.60;2.40;;;;;;;19.99;76.74;93195.41;2071926;69;20239;-79
2023/09/14 08:48:31;;;;;;;4.72;2.38;;;;;;;20.16;76.63;93190.94;2068479;69;20162;-80
2023/09/14 08:50:59;;;;;;;2.83;2.40;;;;;;;20.06;77.00;93177.78;2072033;69;20136;-82
2023/09/14 08:53:26;;;;;;;3.42;2.47;;;;;;;20.19;74.91;93189.63;2068409;69;20186;-82
2023/09/14 08:55:52;;;;;;;3.90;2.50;;;;;;;20.50;73.54;93183.53;2071835;69;20180;-81
2023/09/14 08:58:19;;;;;;;3.50;2.50;;;;;;;20.36;74.02;93197.34;2071736;69;20163;-82
2023/09/14 09:00:46;;;;;;;5.00;2.92;;;;;;;20.44;74.72;93191.16;2071838;69;20144;-79
2023/09/14 09:03:12;;;;;;;2.85;2.63;;;;;;;20.13;75.77;93201.59;2071675;69;20272;-78
2023/09/14 09:05:41;;;;;;;4.50;2.85;;;;;;;20.29;74.74;93190.69;2071837;69;20187;-83
2023/09/14 09:08:07;;;;;;;4.65;3.00;;;;;;;20.90;73.47;93191.91;2071895;69;20148;-81
2023/09/14 09:10:34;;;;;;;4.88;3.28;;;;;;;21.26;72.59;93197.25;2071893;69;20227;-79
2023/09/14 09:13:02;;;;;;;4.43;3.08;;;;;;;21.62;70.75;93194.69;2072018;69;20580;-80
2023/09/14 09:15:29;;;;;;;4.40;2.70;;;;;;;21.76;69.99;93191.50;2072264;69;20174;-81
2023/09/14 09:18:22;;;;;;;4.10;3.25;;;;;;;21.73;71.04;93192.84;2071701;69;20630;-82
2023/09/14 09:20:48;;;;;;;4.68;3.65;;;;;;;22.30;69.10;93194.34;2071542;69;20143;-82
2023/09/14 09:23:17;;;;;;;4.32;3.17;;;;;;;22.66;68.66;93190.91;2071728;69;20607;-81
2023/09/14 09:25:47;;;;;;;3.60;3.17;;;;;;;22.72;66.68;93191.78;2071707;69;20124;-79
2023/09/14 09:28:13;;;;;;;4.22;3.03;;;;;;;23.55;66.06;93200.81;2071860;69;20243;-82
2023/09/14 09:30:39;;;;;;;3.78;3.00;;;;;;;23.73;64.47;93197.56;2071827;69;20152;-83
2023/09/14 09:33:05;;;;;;;4.43;3.20;;;;;;;24.25;63.11;93197.84;2071736;69;20209;-83
2023/09/14 09:35:31;;;;;;;4.07;2.80;;;;;;;24.39;63.93;93196.66;2071779;69;20174;-84
2023/09/14 09:37:58;;;;;;;3.35;2.90;;;;;;;24.56;60.43;93184.00;2071754;69;20606;-82
2023/09/14 09:40:26;;;;;;;3.80;2.70;;;;;;;24.29;63.02;93183.53;2071763;69;20140;-81
2023/09/14 09:42:52;;;;;;;4.15;2.55;;;;;;;24.05;64.24;93186.72;2071793;69;20598;-82
2023/09/14 09:45:31;;;;;;;3.22;2.30;;;;;;;24.61;62.41;93179.75;2071684;69;20144;-83
2023/09/14 09:48:00;;;;;;;2.78;2.42;;;;;;;25.03;61.69;93185.44;2071658;69;20580;-82
2023/09/14 09:50:28;;;;;;;4.75;4.05;;;;;;;24.99;59.54;93181.75;2071869;69;20158;-82
2023/09/14 09:52:54;;;;;;;3.10;2.80;;;;;;;24.25;58.24;93186.34;2071772;69;20219;-83
2023/09/14 09:55:23;;;;;;;3.35;3.05;;;;;;;24.82;58.88;93183.66;2071870;69;20146;-84
2023/09/14 09:57:54;;;;;;;3.15;2.83;;;;;;;25.58;57.96;93173.94;2068386;69;20241;-83
2023/09/14 10:00:26;;;;;;;2.97;2.55;;;;;;;25.75;56.92;93175.59;2071820;69;20137;-80
2023/09/14 10:02:53;;;;;;;3.90;2.78;;;;;;;26.40;57.00;93177.72;2071760;69;20159;-81
2023/09/14 10:05:29;;;;;;;3.20;2.80;;;;;;;26.49;54.84;93180.00;2071865;69;20614;-82
2023/09/14 10:07:59;;;;;;;5.35;2.70;;;;;;;26.73;54.53;93172.97;2071779;69;20611;-83
2023/09/14 10:10:27;;;;;;;4.70;3.10;;;;;;;26.59;54.48;93145.44;2071818;69;20183;-82
2023/09/14 10:12:54;;;;;;;3.05;2.75;;;;;;;27.45;53.55;93177.81;2071789;69;20496;-85
2023/09/14 10:15:20;;;;;;;2.88;2.60;;;;;;;27.77;52.94;93182.31;2071862;69;20584;-84
2023/09/14 10:17:53;;;;;;;2.88;2.60;;;;;;;27.50;53.37;93170.59;2071957;69;20172;-85
2023/09/14 10:20:19;;;;;;;2.95;2.63;;;;;;;27.30;51.17;93173.38;2071934;69;20179;-83
2023/09/14 10:22:46;;;;;;;3.05;2.60;;;;;;;27.54;53.11;93161.94;2071753;69;20155;-85
2023/09/14 10:25:12;;;;;;;3.75;2.65;;;;;;;27.36;53.90;93161.84;2071834;69;20678;-84
2023/09/14 10:27:39;;;;;;;2.97;2.40;;;;;;;27.88;51.69;93163.53;2071809;69;20635;-84
2023/09/14 10:30:08;;;;;;;3.63;2.70;;;;;;;28.22;49.55;93171.56;2068543;69;20231;-81
2023/09/14 10:32:39;;;;;;;4.93;3.08;;;;;;;26.79;52.08;93165.06;2071668;69;20227;-84
2023/09/14 10:35:05;;;;;;;6.55;3.45;;;;;;;25.95;54.39;93154.19;2072320;69;20488;-82
2023/09/14 10:37:33;;;;;;;3.83;2.80;;;;;;;26.68;52.80;93159.94;2068558;69;20148;-84
2023/09/14 10:40:04;;;;;;;3.17;2.85;;;;;;;27.07;52.24;93158.03;2071883;69;20160;-84
2023/09/14 10:42:30;;;;;;;2.70;2.45;;;;;;;28.08;50.05;93154.91;2071808;69;20627;-80
2023/09/14 10:44:57;;;;;;;4.20;2.40;;;;;;;29.47;48.17;93157.81;2071768;69;20144;-81
2023/09/14 10:47:26;;;;;;;3.00;2.50;;;;;;;31.49;46.51;93152.91;2071624;69;20136;-82
2023/09/14 10:49:54;;;;;;;3.20;2.90;;;;;;;30.10;45.05;93148.88;2068399;69;20531;-82
2023/09/14 10:52:25;;;;;;;3.40;3.00;;;;;;;28.42;48.25;93150.66;2071718;69;20139;-82
2023/09/14 10:54:51;;;;;;;3.13;2.78;;;;;;;27.15;50.73;93151.59;2071907;69;20253;-84
2023/09/14 10:57:25;;;;;;;3.65;2.60;;;;;;;27.99;49.93;93144.03;2068653;69;20148;-85
2023/09/14 10:59:53;;;;;;;2.95;2.65;;;;;;;27.56;48.60;93135.19;2071871;69;20566;-83
2023/09/14 11:02:37;;;;;;;3.00;2.70;;;;;;;26.69;50.43;93135.41;2071575;69;20159;-83
2023/09/14 11:05:19;;;;;;;3.30;2.90;;;;;;;26.91;51.23;93132.66;2071638;69;20136;-81
2023/09/14 11:07:50;;;;;;;3.17;2.70;;;;;;;27.24;50.93;93130.00;2071570;69;20226;-79
2023/09/14 11:10:17;;;;;;;3.75;2.40;;;;;;;27.07;49.15;93132.75;2071807;69;20240;-81
2023/09/14 11:12:44;;;;;;;4.47;2.90;;;;;;;25.99;51.94;93116.75;2071620;69;20742;-84
2023/09/14 11:15:21;;;;;;;2.88;2.58;;;;;;;26.38;51.84;93114.19;2071658;69;20627;-84
2023/09/14 11:17:55;;;;;;;2.95;2.50;;;;;;;27.11;50.82;93120.53;2071526;69;20136;-85
2023/09/14 11:20:24;;;;;;;4.25;2.45;;;;;;;29.71;45.60;93121.50;2071855;69;20190;-83
2023/09/14 11:22:52;;;;;;;3.03;2.25;;;;;;;28.99;47.30;93115.16;2071675;69;20144;-83
2023/09/14 11:25:30;;;;;;;2.75;2.03;;;;;;;28.88;46.93;93114.44;2071619;69;20151;-83
2023/09/14 11:27:57;;;;;;;3.03;1.98;;;;;;;29.24;44.92;93110.75;2071786;69;20144;-82
2023/09/14 11:30:27;;;;;;;2.35;2.15;;;;;;;29.79;44.46;93118.56;2071625;69;20133;-82
2023/09/14 11:32:54;;;;;;;2.35;1.85;;;;;;;31.62;42.58;93119.28;2071533;69;20150;-81
2023/09/14 11:35:47;;;;;;;2.08;1.88;;;;;;;30.52;42.12;93118.13;2071692;69;20581;-82